Time;durP1;ratioP1;P1;durP2;ratioP2;P2;SDS_P1;SDS_P2;PMS_P1;PMS_P2;Temp;Humidity;BMP_temperature;BMP_pressure;BME280_temperature;BME280_humidity;BME280_pressure;Samples;Min_cycle;Max_cycle;Signal;HPM_P1;HPM_P2
2021/04/30 00:00:17;;;;;;;14.50;9.67;;;7.90;93.60;;;;;;4956957;28;20174;-85
2021/04/30 00:02:43;;;;;;;13.90;8.67;;;7.90;93.50;;;;;;4957676;28;20270;-85
2021/04/30 00:05:09;;;;;;;16.27;9.40;;;7.90;93.60;;;;;;4958038;28;20449;-84
2021/04/30 00:07:35;;;;;;;12.57;9.10;;;7.80;93.60;;;;;;4958351;28;20175;-85
2021/04/30 00:10:01;;;;;;;15.70;9.20;;;7.80;93.60;;;;;;4959090;28;20469;-85
2021/04/30 00:12:26;;;;;;;16.33;10.23;;;7.80;93.50;;;;;;4958915;28;20771;-85
2021/04/30 00:14:52;;;;;;;13.53;9.67;;;7.80;93.60;;;;;;4959070;28;20182;-86
2021/04/30 00:17:18;;;;;;;14.43;9.07;;;7.70;93.60;;;;;;4959207;28;20379;-85
2021/04/30 00:19:43;;;;;;;13.53;9.00;;;7.70;93.50;;;;;;4959171;28;20206;-85
2021/04/30 00:22:11;;;;;;;16.67;9.60;;;7.70;93.60;;;;;;4959205;28;20179;-85
2021/04/30 00:24:37;;;;;;;15.77;9.80;;;7.70;93.70;;;;;;4958703;28;20237;-84
2021/04/30 00:27:03;;;;;;;13.87;10.50;;;7.70;94.00;;;;;;4975051;28;20413;-86
2021/04/30 00:29:29;;;;;;;17.33;11.10;;;7.70;94.30;;;;;;4957845;28;20944;-85
2021/04/30 00:31:54;;;;;;;21.10;11.10;;;7.60;94.70;;;;;;4958360;28;20418;-85
2021/04/30 00:34:20;;;;;;;15.10;10.30;;;7.60;94.80;;;;;;4957919;28;20623;-85
2021/04/30 00:36:45;;;;;;;15.90;10.50;;;7.60;94.80;;;;;;4957921;28;20189;-87
2021/04/30 00:39:11;;;;;;;19.50;10.70;;;7.70;94.80;;;;;;4975302;28;20190;-85
2021/04/30 00:41:38;;;;;;;19.47;11.43;;;7.70;94.70;;;;;;4957736;28;20186;-85
2021/04/30 00:44:07;;;;;;;17.07;10.40;;;7.70;94.70;;;;;;4958145;28;20244;-85
2021/04/30 00:46:34;;;;;;;19.03;10.33;;;7.60;94.90;;;;;;4956766;28;20516;-85
2021/04/30 00:49:00;;;;;;;16.87;10.27;;;7.60;95.10;;;;;;4973512;28;20469;-85
2021/04/30 00:51:26;;;;;;;16.43;11.53;;;7.50;95.30;;;;;;4956465;28;20418;-85
2021/04/30 00:53:52;;;;;;;16.53;9.13;;;7.50;95.40;;;;;;4973713;28;20425;-85
2021/04/30 00:56:17;;;;;;;17.53;11.20;;;7.50;95.40;;;;;;4956669;28;20704;-85
2021/04/30 00:58:43;;;;;;;18.00;10.87;;;7.50;95.50;;;;;;4956445;28;20462;-85
2021/04/30 01:01:09;;;;;;;17.70;10.90;;;7.50;95.50;;;;;;4957004;28;20178;-85
2021/04/30 01:03:35;;;;;;;15.70;9.33;;;7.50;95.60;;;;;;4956936;28;20206;-85
2021/04/30 01:06:01;;;;;;;18.83;10.93;;;7.40;95.60;;;;;;4960554;28;20414;-85
2021/04/30 01:08:27;;;;;;;16.83;10.40;;;7.50;95.50;;;;;;4978051;28;20480;-85
2021/04/30 01:10:52;;;;;;;17.27;11.00;;;7.40;95.60;;;;;;4978588;28;20457;-85
2021/04/30 01:13:18;;;;;;;17.43;11.10;;;7.40;95.80;;;;;;4962149;28;20206;-85
2021/04/30 01:15:44;;;;;;;13.53;9.93;;;7.40;95.80;;;;;;4962066;28;20598;-84
2021/04/30 01:18:09;;;;;;;16.63;10.70;;;7.40;95.80;;;;;;4979519;28;20194;-85
2021/04/30 01:20:35;;;;;;;18.50;10.87;;;7.30;96.10;;;;;;4962066;28;20179;-85
2021/04/30 01:23:01;;;;;;;19.50;11.00;;;7.30;96.20;;;;;;4962384;28;20190;-88
2021/04/30 01:25:34;;;;;;;13.37;9.47;;;7.30;96.30;;;;;;4962259;28;20183;-85
2021/04/30 01:28:00;;;;;;;16.10;10.43;;;7.30;96.20;;;;;;4961874;28;20202;-85
2021/04/30 01:30:29;;;;;;;17.87;10.53;;;7.30;96.30;;;;;;4978021;28;20450;-85
2021/04/30 01:32:55;;;;;;;19.40;10.80;;;7.30;96.30;;;;;;4960825;28;20178;-85
2021/04/30 01:35:27;;;;;;;20.20;10.57;;;7.30;96.30;;;;;;4961054;28;20449;-83
2021/04/30 01:37:54;;;;;;;16.70;9.70;;;7.30;96.20;;;;;;4960607;28;20434;-85
2021/04/30 01:40:22;;;;;;;17.00;10.90;;;7.20;96.20;;;;;;4960777;28;20418;-85
2021/04/30 01:43:14;;;;;;;19.87;10.40;;;7.20;96.30;;;;;;4960387;28;20468;-85
2021/04/30 01:45:43;;;;;;;17.20;10.37;;;7.20;96.50;;;;;;4958227;28;20509;-84
2021/04/30 01:48:15;;;;;;;15.80;10.17;;;7.10;96.50;;;;;;4960282;28;20451;-85
2021/04/30 01:50:42;;;;;;;14.97;9.77;;;7.10;96.50;;;;;;4959365;28;20485;-84
2021/04/30 01:53:09;;;;;;;18.13;9.97;;;7.10;96.40;;;;;;4959304;28;20860;-85
2021/04/30 01:56:04;;;;;;;18.50;10.43;;;7.20;96.50;;;;;;4959428;28;20426;-85
2021/04/30 01:58:30;;;;;;;18.53;10.47;;;7.20;96.20;;;;;;4952539;28;21002;-85
2021/04/30 02:00:57;;;;;;;19.50;10.90;;;7.20;96.30;;;;;;4959262;28;20434;-85
2021/04/30 02:03:25;;;;;;;17.10;10.93;;;7.20;96.40;;;;;;4959221;28;20473;-85
2021/04/30 02:05:51;;;;;;;20.00;11.07;;;7.20;96.30;;;;;;4959646;28;20430;-85
2021/04/30 02:36:55;;;;;;;16.17;10.00;;;7.10;96.60;;;;;;4805638;29;20430;-85
2021/04/30 02:39:28;;;;;;;17.10;11.33;;;7.10;96.70;;;;;;4846038;29;20503;-85
2021/04/30 02:41:56;;;;;;;18.47;11.03;;;7.10;96.70;;;;;;4897604;29;20974;-85
2021/04/30 02:44:21;;;;;;;17.03;11.13;;;7.10;96.70;;;;;;4902868;29;20431;-85
2021/04/30 02:46:47;;;;;;;22.60;11.20;;;7.10;96.80;;;;;;4903398;29;20429;-87
2021/04/30 02:49:15;;;;;;;18.17;11.37;;;7.10;96.80;;;;;;4902379;29;20247;-85
2021/04/30 02:51:41;;;;;;;25.33;12.40;;;7.10;96.80;;;;;;4919494;29;20243;-85
2021/04/30 02:54:07;;;;;;;18.90;11.07;;;7.10;96.70;;;;;;4902825;29;20835;-85
2021/04/30 02:56:35;;;;;;;18.90;11.73;;;7.10;96.70;;;;;;4901748;29;20188;-87
2021/04/30 02:59:04;;;;;;;19.63;11.43;;;7.20;96.80;;;;;;4900986;29;20975;-85
2021/04/30 03:01:30;;;;;;;20.33;11.53;;;7.20;96.70;;;;;;4901451;29;20424;-85
2021/04/30 03:03:55;;;;;;;19.20;12.23;;;7.20;96.70;;;;;;4901622;29;20431;-84
2021/04/30 03:06:21;;;;;;;24.47;11.90;;;7.20;96.90;;;;;;4901512;29;20448;-84
2021/04/30 03:08:52;;;;;;;21.93;11.53;;;7.20;96.60;;;;;;4901715;29;20601;-85
2021/04/30 03:11:17;;;;;;;26.97;13.17;;;7.30;96.70;;;;;;4918631;29;20185;-84
2021/04/30 03:13:43;;;;;;;21.57;11.80;;;7.30;96.70;;;;;;4901655;29;20485;-85
2021/04/30 03:16:09;;;;;;;20.03;12.27;;;7.30;96.50;;;;;;4901644;29;20185;-85
2021/04/30 03:18:34;;;;;;;23.43;13.00;;;7.40;96.50;;;;;;4901671;29;20451;-85
2021/04/30 03:21:00;;;;;;;20.97;11.27;;;7.40;96.40;;;;;;4902311;29;20225;-84
2021/04/30 03:23:25;;;;;;;20.77;12.03;;;7.40;96.20;;;;;;4919844;29;20231;-86
2021/04/30 03:25:51;;;;;;;20.67;12.30;;;7.50;96.10;;;;;;4903219;29;20224;-85
2021/04/30 03:28:16;;;;;;;26.10;14.53;;;7.50;96.20;;;;;;4919079;29;20205;-85
2021/04/30 03:30:42;;;;;;;24.80;14.50;;;7.50;96.20;;;;;;4902961;29;20208;-85
2021/04/30 03:33:07;;;;;;;24.57;13.30;;;7.50;96.20;;;;;;4919314;29;20673;-85
2021/04/30 03:35:33;;;;;;;27.23;13.97;;;7.50;96.10;;;;;;4920011;29;20208;-85
2021/04/30 03:38:00;;;;;;;29.17;13.83;;;7.60;96.10;;;;;;4918458;29;21009;-85
2021/04/30 03:40:26;;;;;;;27.33;14.40;;;7.60;96.10;;;;;;4901950;29;20176;-85
2021/04/30 03:42:51;;;;;;;26.00;14.07;;;7.60;96.20;;;;;;4918775;29;20908;-84
2021/04/30 03:45:17;;;;;;;27.43;14.80;;;7.60;96.30;;;;;;4902115;29;20184;-85
2021/04/30 03:47:42;;;;;;;27.30;14.30;;;7.60;96.30;;;;;;4901566;29;20180;-85
2021/04/30 03:50:08;;;;;;;24.33;13.70;;;7.60;96.40;;;;;;4901976;29;20208;-85
2021/04/30 03:52:34;;;;;;;28.33;16.03;;;7.60;96.30;;;;;;4901676;29;20184;-86
2021/04/30 03:55:00;;;;;;;25.67;15.50;;;7.60;96.50;;;;;;4901465;29;20460;-85
2021/04/30 03:57:26;;;;;;;27.43;15.20;;;7.60;96.60;;;;;;4901610;29;20464;-85
2021/04/30 03:59:51;;;;;;;21.83;14.30;;;7.50;96.60;;;;;;4900783;29;20592;-85
2021/04/30 04:02:17;;;;;;;25.90;14.43;;;7.50;96.60;;;;;;4900784;29;20188;-85
2021/04/30 04:04:42;;;;;;;28.63;14.40;;;7.50;96.70;;;;;;4900341;29;20184;-86
2021/04/30 04:07:08;;;;;;;35.30;16.97;;;7.50;96.80;;;;;;4900284;29;20196;-85
2021/04/30 04:09:33;;;;;;;28.07;16.23;;;7.50;96.80;;;;;;4901058;29;20238;-85
2021/04/30 04:11:59;;;;;;;27.53;15.90;;;7.50;96.80;;;;;;4900767;29;20184;-86
2021/04/30 04:14:25;;;;;;;34.07;16.30;;;7.50;96.90;;;;;;4900615;29;20181;-85
2021/04/30 04:16:50;;;;;;;31.60;15.87;;;7.60;96.90;;;;;;4900724;29;20184;-85
2021/04/30 04:19:17;;;;;;;27.20;16.63;;;7.60;97.00;;;;;;4918090;29;20609;-85
2021/04/30 04:21:43;;;;;;;31.37;17.83;;;7.60;96.90;;;;;;4901317;29;20209;-84
2021/04/30 04:24:09;;;;;;;31.87;16.60;;;7.70;96.80;;;;;;4910608;29;20433;-87
2021/04/30 04:26:34;;;;;;;29.17;16.37;;;7.70;96.80;;;;;;4918607;29;20195;-86
2021/04/30 04:29:00;;;;;;;27.20;15.23;;;7.70;96.80;;;;;;4933851;29;20511;-87
2021/04/30 04:31:26;;;;;;;28.23;16.47;;;7.70;96.70;;;;;;4915243;29;20185;-85
2021/04/30 04:33:51;;;;;;;26.00;14.57;;;7.70;96.70;;;;;;4903047;29;20180;-84
2021/04/30 04:36:17;;;;;;;29.47;16.70;;;7.80;96.50;;;;;;4902581;29;20180;-85
2021/04/30 04:38:42;;;;;;;30.13;17.80;;;7.80;96.40;;;;;;4901112;29;20295;-85
2021/04/30 04:41:08;;;;;;;27.87;16.00;;;7.80;96.50;;;;;;4902228;29;20185;-85
2021/04/30 04:43:33;;;;;;;29.70;16.77;;;7.80;96.50;;;;;;4918903;29;20679;-85
2021/04/30 04:45:59;;;;;;;34.07;17.67;;;7.80;96.60;;;;;;4918186;29;20561;-85
2021/04/30 04:48:24;;;;;;;33.10;18.10;;;7.80;96.60;;;;;;4901077;29;20291;-84
2021/04/30 04:50:53;;;;;;;38.30;17.57;;;7.80;96.60;;;;;;4900985;29;20302;-85
2021/04/30 04:53:19;;;;;;;32.07;17.93;;;7.90;96.50;;;;;;4900983;29;20176;-85
2021/04/30 04:55:44;;;;;;;37.80;19.30;;;7.90;96.30;;;;;;4900876;29;20795;-85
2021/04/30 04:58:10;;;;;;;31.37;18.23;;;7.90;96.10;;;;;;4921399;23;20791;-86
2021/04/30 05:00:35;;;;;;;41.40;17.30;;;7.90;96.10;;;;;;4955877;28;20206;-87
2021/04/30 05:03:03;;;;;;;32.30;18.60;;;7.90;96.30;;;;;;4956702;28;20182;-85
2021/04/30 05:05:28;;;;;;;31.67;17.90;;;7.90;96.00;;;;;;4957487;28;20281;-87
2021/04/30 05:07:54;;;;;;;31.20;18.40;;;7.90;96.20;;;;;;4956681;28;21011;-86
2021/04/30 05:10:20;;;;;;;34.83;16.97;;;8.00;96.20;;;;;;4956257;28;20209;-85
2021/04/30 05:12:46;;;;;;;30.33;17.70;;;8.00;95.90;;;;;;4955965;28;20282;-86
2021/04/30 05:15:15;;;;;;;28.00;17.77;;;8.00;95.80;;;;;;4954927;28;20541;-86
2021/04/30 05:17:43;;;;;;;30.67;17.63;;;8.00;95.80;;;;;;4954715;28;20847;-86
2021/04/30 05:20:10;;;;;;;30.93;17.73;;;8.00;96.10;;;;;;4976923;28;20533;-85
2021/04/30 05:22:36;;;;;;;31.43;17.93;;;8.10;95.90;;;;;;4973325;28;20406;-85
2021/04/30 05:25:02;;;;;;;34.83;17.97;;;8.10;95.80;;;;;;4955514;28;20422;-86
2021/04/30 05:27:27;;;;;;;37.13;18.00;;;8.00;95.80;;;;;;4955421;28;20464;-86
2021/04/30 05:29:53;;;;;;;31.73;17.33;;;8.00;95.90;;;;;;4955517;28;20461;-86
2021/04/30 05:32:18;;;;;;;29.07;16.90;;;8.10;96.10;;;;;;4955063;28;20273;-86
2021/04/30 05:34:44;;;;;;;33.23;18.03;;;8.10;96.30;;;;;;4955339;28;20265;-85
2021/04/30 05:37:10;;;;;;;31.93;18.57;;;8.10;96.00;;;;;;4956640;28;20175;-85
2021/04/30 05:39:35;;;;;;;31.50;19.00;;;8.10;95.90;;;;;;4957804;28;20668;-86
2021/04/30 05:42:05;;;;;;;28.93;17.60;;;8.10;96.20;;;;;;4974340;28;20178;-86
2021/04/30 05:44:31;;;;;;;30.67;17.33;;;8.20;96.20;;;;;;4974274;28;20179;-86
2021/04/30 05:46:56;;;;;;;32.90;17.90;;;8.20;96.10;;;;;;4962838;28;20492;-88
2021/04/30 05:49:22;;;;;;;32.80;18.07;;;8.20;96.30;;;;;;4979306;28;20580;-87
2021/04/30 05:51:47;;;;;;;38.07;19.43;;;8.20;96.10;;;;;;4965456;28;20243;-87
2021/04/30 05:54:13;;;;;;;32.47;16.83;;;8.20;96.30;;;;;;4960207;28;20209;-86
2021/04/30 05:56:38;;;;;;;31.33;17.57;;;8.30;96.60;;;;;;4959497;28;20167;-85
2021/04/30 05:59:04;;;;;;;30.83;17.70;;;8.40;96.60;;;;;;4958502;28;20234;-86
2021/04/30 06:01:30;;;;;;;32.57;17.23;;;8.40;96.60;;;;;;4959214;28;20174;-86
2021/04/30 06:03:56;;;;;;;30.60;17.07;;;8.40;96.60;;;;;;4959022;28;20209;-85
2021/04/30 06:06:21;;;;;;;34.47;18.00;;;8.40;96.70;;;;;;4959539;28;20218;-86
2021/04/30 06:08:47;;;;;;;34.40;17.70;;;8.40;96.90;;;;;;4959247;28;20256;-86
2021/04/30 06:11:12;;;;;;;34.23;18.33;;;8.40;96.80;;;;;;4959137;28;20237;-86
2021/04/30 06:13:38;;;;;;;36.20;18.20;;;8.40;96.70;;;;;;4976363;28;20174;-86
2021/04/30 06:16:04;;;;;;;31.37;17.70;;;8.50;96.80;;;;;;4958794;28;20435;-86
2021/04/30 06:18:30;;;;;;;34.20;18.90;;;8.60;96.90;;;;;;4957846;28;20290;-85
2021/04/30 06:20:55;;;;;;;28.40;16.47;;;8.60;96.80;;;;;;4957354;28;20524;-86
2021/04/30 06:23:21;;;;;;;32.43;17.23;;;8.60;96.60;;;;;;4957367;28;20195;-86
2021/04/30 06:25:47;;;;;;;26.20;15.90;;;8.60;96.70;;;;;;4957819;28;20232;-85
2021/04/30 06:28:12;;;;;;;30.33;18.37;;;8.70;96.60;;;;;;4957487;28;20202;-86
2021/04/30 06:30:39;;;;;;;29.93;18.63;;;8.70;96.90;;;;;;4957122;28;20206;-86
2021/04/30 06:33:08;;;;;;;31.27;17.80;;;8.70;96.90;;;;;;4957095;28;20182;-86
2021/04/30 06:35:34;;;;;;;29.83;16.53;;;8.70;96.80;;;;;;4957517;28;20446;-86
2021/04/30 06:37:59;;;;;;;31.00;17.80;;;8.70;96.80;;;;;;4957124;28;20536;-86
2021/04/30 06:40:25;;;;;;;30.33;16.80;;;8.60;96.90;;;;;;4975308;28;20645;-86
2021/04/30 06:42:50;;;;;;;30.73;16.30;;;8.60;97.10;;;;;;4974442;28;20218;-86
2021/04/30 06:45:15;;;;;;;27.63;16.30;;;8.60;97.30;;;;;;4975585;28;20190;-85
2021/04/30 06:47:41;;;;;;;28.57;17.00;;;8.60;97.30;;;;;;4958214;28;20238;-85
2021/04/30 06:50:07;;;;;;;25.60;15.93;;;8.60;97.30;;;;;;4958461;28;20210;-86
2021/04/30 06:52:33;;;;;;;28.83;16.47;;;8.70;97.30;;;;;;4958678;28;20700;-85
2021/04/30 06:54:58;;;;;;;34.03;18.40;;;8.70;97.30;;;;;;4959471;28;20418;-86
2021/04/30 06:57:24;;;;;;;29.27;16.57;;;8.70;97.30;;;;;;4959484;28;20191;-86
2021/04/30 06:59:50;;;;;;;31.70;18.23;;;8.70;97.30;;;;;;4976484;28;20229;-85
2021/04/30 07:02:15;;;;;;;32.40;18.33;;;8.80;97.30;;;;;;4958484;28;20418;-86
2021/04/30 07:04:41;;;;;;;28.43;16.80;;;8.80;97.30;;;;;;4959037;28;20233;-86
2021/04/30 07:07:06;;;;;;;29.37;16.93;;;8.80;97.30;;;;;;4958197;28;20265;-85
2021/04/30 07:09:32;;;;;;;28.80;16.57;;;8.80;97.30;;;;;;4957561;28;20341;-86
2021/04/30 07:11:58;;;;;;;31.60;17.87;;;8.80;97.30;;;;;;4958033;28;20202;-85
2021/04/30 07:14:24;;;;;;;30.83;18.67;;;8.80;97.00;;;;;;4957568;28;20182;-86
2021/04/30 07:16:52;;;;;;;27.50;16.10;;;8.70;97.20;;;;;;4957818;28;20422;-86
2021/04/30 07:19:18;;;;;;;29.63;16.30;;;8.70;97.20;;;;;;4957689;28;20288;-86
2021/04/30 07:21:43;;;;;;;29.63;17.57;;;8.70;97.30;;;;;;4959183;28;20426;-86
2021/04/30 07:24:09;;;;;;;25.23;15.87;;;8.70;97.30;;;;;;4957823;28;20186;-86
2021/04/30 07:26:35;;;;;;;28.20;17.90;;;8.80;97.30;;;;;;4958486;28;20185;-85
2021/04/30 07:29:02;;;;;;;30.13;18.47;;;8.90;97.30;;;;;;4956159;28;20202;-86
2021/04/30 07:31:28;;;;;;;37.33;19.03;;;8.90;97.30;;;;;;4955918;28;20214;-86
2021/04/30 07:33:56;;;;;;;34.43;18.33;;;8.90;97.30;;;;;;4955940;28;20418;-86
2021/04/30 07:36:21;;;;;;;26.27;17.03;;;8.90;97.30;;;;;;4956369;28;20286;-86
2021/04/30 07:38:47;;;;;;;30.57;16.77;;;9.00;97.30;;;;;;4955929;28;20868;-86
2021/04/30 07:41:13;;;;;;;30.53;17.57;;;9.10;97.20;;;;;;4956000;28;20178;-86
2021/04/30 07:43:39;;;;;;;30.17;17.00;;;9.10;97.10;;;;;;4973472;28;20170;-85
2021/04/30 07:46:05;;;;;;;33.17;17.03;;;9.20;97.20;;;;;;4956410;28;20834;-85
2021/04/30 07:48:31;;;;;;;30.90;16.20;;;9.30;97.10;;;;;;4960553;28;20752;-85
2021/04/30 07:50:59;;;;;;;25.27;15.50;;;9.40;96.90;;;;;;4971999;28;20846;-85
2021/04/30 07:53:25;;;;;;;31.07;16.50;;;9.40;96.80;;;;;;4962120;28;20414;-86
2021/04/30 07:55:51;;;;;;;29.30;16.90;;;9.50;97.10;;;;;;4956665;28;20422;-87
2021/04/30 07:58:19;;;;;;;26.87;15.80;;;9.60;97.10;;;;;;4956922;28;20957;-85
2021/04/30 08:00:44;;;;;;;29.50;16.57;;;9.50;96.90;;;;;;4956674;28;20177;-86
2021/04/30 08:03:10;;;;;;;26.50;16.43;;;9.50;96.90;;;;;;4959263;28;20489;-85
2021/04/30 08:05:35;;;;;;;26.53;16.17;;;9.60;97.10;;;;;;4963240;28;20182;-86
2021/04/30 08:08:04;;;;;;;26.70;16.93;;;9.80;96.90;;;;;;4960608;28;20178;-86
2021/04/30 08:10:37;;;;;;;23.50;16.07;;;10.00;97.20;;;;;;4955491;28;20681;-86
2021/04/30 08:13:03;;;;;;;26.50;16.50;;;10.20;95.90;;;;;;4973743;28;20844;-86
2021/04/30 08:15:28;;;;;;;29.73;17.37;;;10.30;95.70;;;;;;4956116;28;20410;-87
2021/04/30 08:17:54;;;;;;;24.20;14.40;;;10.20;95.40;;;;;;4956789;28;20201;-86
2021/04/30 08:20:19;;;;;;;25.20;16.50;;;10.30;95.60;;;;;;4956751;28;20182;-86
2021/04/30 08:22:45;;;;;;;24.30;14.67;;;10.40;95.50;;;;;;4956504;28;20193;-86
2021/04/30 08:25:11;;;;;;;26.10;15.00;;;10.50;95.00;;;;;;4956602;28;20189;-86
2021/04/30 08:27:37;;;;;;;27.50;15.60;;;10.90;95.10;;;;;;4956139;28;20259;-86
2021/04/30 08:30:04;;;;;;;25.27;14.63;;;11.30;93.70;;;;;;4956152;28;20469;-87
2021/04/30 08:32:31;;;;;;;25.73;15.80;;;11.50;92.40;;;;;;4956845;28;20444;-86
2021/04/30 08:34:57;;;;;;;25.63;14.80;;;11.50;92.60;;;;;;4956313;28;20917;-86
2021/04/30 08:37:23;;;;;;;28.00;15.40;;;11.50;92.70;;;;;;4956438;28;20763;-86
2021/04/30 08:39:49;;;;;;;27.10;15.70;;;11.50;92.80;;;;;;4973080;28;20421;-87
2021/04/30 08:42:17;;;;;;;27.47;15.60;;;11.40;92.30;;;;;;4972318;28;20221;-86
2021/04/30 08:44:43;;;;;;;27.00;14.87;;;11.20;92.90;;;;;;4955079;28;20229;-87
2021/04/30 08:47:08;;;;;;;25.20;14.47;;;11.20;93.00;;;;;;4955248;28;20458;-86
2021/04/30 08:49:35;;;;;;;22.50;15.30;;;11.20;93.20;;;;;;4954852;28;20704;-87
2021/04/30 08:52:00;;;;;;;23.40;14.90;;;11.20;92.90;;;;;;4974533;28;20166;-87
2021/04/30 08:54:26;;;;;;;21.97;12.50;;;11.30;93.00;;;;;;4955001;28;20963;-87
2021/04/30 08:57:00;;;;;;;25.83;15.07;;;11.30;92.70;;;;;;4955437;28;20414;-86
2021/04/30 08:59:26;;;;;;;24.07;14.77;;;11.40;93.40;;;;;;4954696;28;20517;-87
2021/04/30 09:01:53;;;;;;;26.10;15.57;;;11.40;92.50;;;;;;4972856;28;20414;-86
2021/04/30 09:04:19;;;;;;;28.63;15.17;;;11.40;92.90;;;;;;4955145;28;20456;-86
2021/04/30 09:06:45;;;;;;;23.73;15.30;;;11.30;92.80;;;;;;4954854;28;20453;-87
2021/04/30 09:09:18;;;;;;;25.20;14.30;;;11.10;93.30;;;;;;4972137;28;20670;-88
2021/04/30 09:11:52;;;;;;;21.43;13.10;;;11.00;94.10;;;;;;4956360;28;20564;-87
2021/04/30 09:14:30;;;;;;;14.43;10.23;;;11.00;94.10;;;;;;4956172;28;20944;-87
2021/04/30 09:17:06;;;;;;;14.70;9.33;;;10.90;94.80;;;;;;4974535;28;20509;-87
2021/04/30 09:19:46;;;;;;;14.90;10.20;;;10.80;95.60;;;;;;4959979;28;20438;-87
2021/04/30 09:22:12;;;;;;;18.97;10.30;;;10.70;96.50;;;;;;4974647;28;20449;-87
2021/04/30 09:24:38;;;;;;;18.10;10.67;;;10.60;97.10;;;;;;4957616;28;20426;-87
2021/04/30 09:27:05;;;;;;;22.00;12.20;;;10.50;97.30;;;;;;4960901;28;20446;-87
2021/04/30 09:29:34;;;;;;;21.07;13.33;;;10.50;97.30;;;;;;4960965;28;20846;-87
2021/04/30 09:32:00;;;;;;;23.60;13.00;;;10.40;97.30;;;;;;4960314;28;20537;-86
2021/04/30 09:34:31;;;;;;;23.67;14.17;;;10.30;97.30;;;;;;4960353;28;20422;-87
2021/04/30 09:37:11;;;;;;;21.63;14.00;;;10.10;97.30;;;;;;4959559;28;20955;-87
2021/04/30 09:39:58;;;;;;;27.43;15.30;;;9.90;97.30;;;;;;4959625;28;20536;-86
2021/04/30 09:42:27;;;;;;;24.50;14.97;;;9.80;97.30;;;;;;4959314;28;20418;-86
2021/04/30 09:44:56;;;;;;;27.97;15.00;;;9.70;97.30;;;;;;4959766;28;20429;-87
2021/04/30 09:47:26;;;;;;;24.27;14.50;;;9.60;97.30;;;;;;4959509;28;20530;-86
2021/04/30 09:49:54;;;;;;;24.67;14.23;;;9.60;97.30;;;;;;4959119;28;20462;-87
2021/04/30 09:52:22;;;;;;;23.43;12.67;;;9.50;97.30;;;;;;4976594;28;20553;-87
2021/04/30 09:54:48;;;;;;;23.70;14.70;;;9.50;97.30;;;;;;4959449;28;20413;-87
2021/04/30 09:57:25;;;;;;;22.70;14.10;;;9.40;97.30;;;;;;4959846;28;20476;-87
2021/04/30 09:59:55;;;;;;;28.70;12.57;;;9.40;97.30;;;;;;4961351;28;20477;-87
2021/04/30 10:02:23;;;;;;;19.30;11.50;;;9.50;97.30;;;;;;4958244;28;20422;-87
2021/04/30 10:04:52;;;;;;;20.03;11.33;;;9.50;97.30;;;;;;4957847;28;20425;-87
2021/04/30 10:07:32;;;;;;;19.73;11.20;;;9.50;97.30;;;;;;4974404;28;20414;-87
2021/04/30 10:10:18;;;;;;;18.40;10.40;;;9.50;97.30;;;;;;4974468;28;20987;-87
2021/04/30 10:12:45;;;;;;;17.50;10.20;;;9.50;97.30;;;;;;4957952;28;20420;-87
2021/04/30 10:15:19;;;;;;;19.77;11.20;;;9.60;97.30;;;;;;4974901;28;20410;-87
2021/04/30 10:17:45;;;;;;;16.60;10.30;;;9.60;97.30;;;;;;4957427;28;20426;-86
2021/04/30 10:20:15;;;;;;;16.50;11.20;;;9.70;97.30;;;;;;4957121;28;20921;-87
2021/04/30 10:22:43;;;;;;;19.90;11.70;;;9.70;97.30;;;;;;4974901;28;20414;-86
2021/04/30 10:25:14;;;;;;;16.67;10.50;;;9.70;97.30;;;;;;4957976;28;20852;-87
2021/04/30 10:27:42;;;;;;;16.90;10.40;;;9.70;97.30;;;;;;4975088;28;20941;-87
2021/04/30 10:30:42;;;;;;;18.23;10.53;;;9.70;97.30;;;;;;4957410;28;20493;-87
2021/04/30 10:33:24;;;;;;;18.83;11.17;;;9.70;97.30;;;;;;4947607;28;20441;-87
2021/04/30 10:36:15;;;;;;;19.70;11.17;;;9.80;97.30;;;;;;4958722;28;20414;-86
2021/04/30 10:38:45;;;;;;;21.67;11.63;;;9.80;97.30;;;;;;4959115;28;20430;-87
2021/04/30 10:41:10;;;;;;;20.27;12.10;;;9.90;97.30;;;;;;4960770;28;20417;-87
2021/04/30 10:43:37;;;;;;;21.30;11.60;;;9.90;97.30;;;;;;4959920;28;20417;-87
2021/04/30 10:46:05;;;;;;;18.23;11.17;;;10.00;97.30;;;;;;4959314;28;20182;-87
2021/04/30 10:48:36;;;;;;;18.47;10.87;;;10.10;97.30;;;;;;4959544;28;20500;-87
2021/04/30 10:51:12;;;;;;;20.30;11.70;;;10.10;97.30;;;;;;4959260;28;20461;-88
2021/04/30 10:53:37;;;;;;;18.30;11.83;;;10.20;97.30;;;;;;4959263;28;20991;-86
2021/04/30 10:56:32;;;;;;;17.40;11.10;;;10.30;97.30;;;;;;4977106;28;20497;-87
2021/04/30 10:58:58;;;;;;;18.10;10.50;;;10.40;97.30;;;;;;4960513;28;20689;-87
2021/04/30 11:01:33;;;;;;;18.00;9.70;;;10.40;97.30;;;;;;4976102;28;20449;-87
2021/04/30 11:04:13;;;;;;;16.90;10.80;;;10.40;97.30;;;;;;4960027;28;20201;-87
2021/04/30 11:06:45;;;;;;;17.53;8.73;;;10.40;97.30;;;;;;4958380;28;20422;-87
2021/04/30 11:09:15;;;;;;;13.60;8.67;;;10.50;97.30;;;;;;4957759;28;20508;-87
2021/04/30 11:11:44;;;;;;;15.17;8.57;;;10.60;97.30;;;;;;4957918;28;20446;-87
2021/04/30 11:14:25;;;;;;;13.73;8.30;;;10.70;97.30;;;;;;4962307;28;20414;-90
2021/04/30 11:16:54;;;;;;;14.90;8.90;;;10.80;97.30;;;;;;4998187;28;20412;-89
2021/04/30 11:19:26;;;;;;;12.53;7.70;;;10.80;97.30;;;;;;4959133;28;20501;-87
2021/04/30 11:21:54;;;;;;;13.43;8.17;;;10.90;97.30;;;;;;4975186;28;20421;-87
2021/04/30 11:24:40;;;;;;;15.40;8.17;;;10.90;97.30;;;;;;4957373;28;20513;-87
2021/04/30 11:27:11;;;;;;;13.93;7.77;;;11.00;97.30;;;;;;4975074;28;20445;-87
2021/04/30 11:29:41;;;;;;;13.03;8.07;;;11.10;97.30;;;;;;4956612;28;20474;-87
2021/04/30 11:32:18;;;;;;;11.37;7.20;;;11.10;97.30;;;;;;4959244;28;20481;-86
2021/04/30 11:35:14;;;;;;;10.00;6.70;;;11.10;97.30;;;;;;4967164;28;20929;-87
2021/04/30 11:37:42;;;;;;;11.07;6.97;;;11.10;97.30;;;;;;4956846;28;21006;-87
2021/04/30 11:40:12;;;;;;;10.50;6.43;;;11.00;97.30;;;;;;4956522;28;20441;-87
2021/04/30 11:42:38;;;;;;;15.23;7.40;;;11.10;97.30;;;;;;4956693;28;20434;-87
2021/04/30 11:45:04;;;;;;;11.27;7.20;;;11.10;97.30;;;;;;4961824;28;20417;-87
2021/04/30 11:47:31;;;;;;;12.27;7.13;;;11.10;97.30;;;;;;4962119;28;20186;-87
2021/04/30 11:49:59;;;;;;;12.27;6.60;;;11.10;97.30;;;;;;4956643;28;20461;-87
2021/04/30 11:52:30;;;;;;;13.23;7.80;;;11.10;97.30;;;;;;4956333;28;20414;-87
2021/04/30 11:55:13;;;;;;;17.53;7.40;;;11.20;97.20;;;;;;4956344;28;20426;-86
2021/04/30 11:57:40;;;;;;;12.10;8.00;;;11.20;96.80;;;;;;4956788;28;20433;-86
2021/04/30 12:00:26;;;;;;;11.80;7.57;;;11.20;96.60;;;;;;4956280;28;20469;-87
2021/04/30 12:03:03;;;;;;;12.10;7.20;;;11.30;96.70;;;;;;4956538;28;20446;-87
2021/04/30 12:05:32;;;;;;;11.87;7.60;;;11.40;96.20;;;;;;4974650;28;20460;-88
2021/04/30 12:07:58;;;;;;;13.20;8.80;;;11.40;96.20;;;;;;4956855;28;20426;-86
2021/04/30 12:10:32;;;;;;;12.03;8.00;;;11.50;96.90;;;;;;4958359;28;20466;-86
2021/04/30 12:12:58;;;;;;;12.90;8.57;;;11.50;95.80;;;;;;4958707;28;20500;-87
2021/04/30 12:15:32;;;;;;;14.00;8.30;;;11.60;95.30;;;;;;4958512;28;20925;-87
2021/04/30 12:17:58;;;;;;;12.07;8.10;;;11.70;94.40;;;;;;4976058;28;20923;-86
2021/04/30 12:20:26;;;;;;;12.27;8.23;;;11.80;94.40;;;;;;4959102;28;20513;-85
2021/04/30 12:23:03;;;;;;;11.80;8.00;;;11.90;93.70;;;;;;4974907;28;20425;-86
2021/04/30 12:25:34;;;;;;;12.27;8.33;;;12.00;94.10;;;;;;4958209;28;20444;-87
2021/04/30 12:28:26;;;;;;;12.90;7.97;;;12.00;94.00;;;;;;4974799;28;20417;-87
2021/04/30 12:31:05;;;;;;;13.73;9.03;;;12.00;93.80;;;;;;4975438;28;20460;-87
2021/04/30 12:33:49;;;;;;;15.20;9.53;;;12.00;94.00;;;;;;4956920;28;20425;-87
2021/04/30 12:36:22;;;;;;;13.93;8.47;;;11.80;93.60;;;;;;4957314;28;20422;-86
2021/04/30 12:38:53;;;;;;;14.23;9.67;;;11.80;94.30;;;;;;4957352;28;20444;-87
2021/04/30 12:41:23;;;;;;;13.80;8.77;;;11.70;94.30;;;;;;4958214;28;20513;-85
2021/04/30 12:43:50;;;;;;;14.60;8.40;;;11.60;94.20;;;;;;4959901;28;20599;-87
2021/04/30 12:46:21;;;;;;;13.93;8.53;;;11.60;94.90;;;;;;4957467;28;20949;-85
2021/04/30 12:48:49;;;;;;;15.70;9.47;;;11.70;95.30;;;;;;4938918;29;20481;-85
2021/04/30 12:51:20;;;;;;;14.93;8.93;;;11.70;96.00;;;;;;4956542;28;20520;-84
2021/04/30 12:53:46;;;;;;;14.70;9.33;;;11.50;96.00;;;;;;4973271;28;20906;-83
2021/04/30 12:56:29;;;;;;;11.90;8.10;;;11.40;96.40;;;;;;4971095;28;20413;-83
2021/04/30 12:59:04;;;;;;;14.77;9.30;;;11.40;97.00;;;;;;4966283;28;20503;-86
2021/04/30 13:01:33;;;;;;;14.67;9.30;;;11.30;96.60;;;;;;4969945;28;20543;-86
2021/04/30 13:04:00;;;;;;;14.43;9.87;;;11.30;96.90;;;;;;4969485;28;20429;-86
2021/04/30 13:06:26;;;;;;;15.73;8.97;;;11.20;97.10;;;;;;4968329;28;20924;-86
2021/04/30 13:08:53;;;;;;;18.60;10.33;;;11.20;96.90;;;;;;4975349;28;20448;-87